sensor_id;sensor_type;location;lat;lon;timestamp;P1;durP1;ratioP1;P2;durP2;ratioP2
3149;SDS011;32503;47.748;8.960;2022-09-01T00:01:43;9.67;;;8.90;;
3149;SDS011;32503;47.748;8.960;2022-09-01T00:04:13;8.93;;;8.03;;
3149;SDS011;32503;47.748;8.960;2022-09-01T00:06:44;9.30;;;8.47;;
3149;SDS011;32503;47.748;8.960;2022-09-01T00:09:13;9.73;;;8.93;;
3149;SDS011;32503;47.748;8.960;2022-09-01T00:11:43;10.93;;;9.83;;
3149;SDS011;32503;47.748;8.960;2022-09-01T00:14:17;10.63;;;9.73;;
3149;SDS011;32503;47.748;8.960;2022-09-01T00:16:44;9.97;;;9.07;;
3149;SDS011;32503;47.748;8.960;2022-09-01T00:19:12;10.73;;;9.63;;
3149;SDS011;32503;47.748;8.960;2022-09-01T00:21:40;9.67;;;8.73;;
3149;SDS011;32503;47.748;8.960;2022-09-01T00:24:10;11.07;;;10.13;;
3149;SDS011;32503;47.748;8.960;2022-09-01T00:26:40;11.47;;;10.57;;
3149;SDS011;32503;47.748;8.960;2022-09-01T00:29:09;10.53;;;9.63;;
3149;SDS011;32503;47.748;8.960;2022-09-01T00:31:36;11.47;;;10.37;;
3149;SDS011;32503;47.748;8.960;2022-09-01T00:34:04;11.53;;;10.50;;
3149;SDS011;32503;47.748;8.960;2022-09-01T00:36:32;9.87;;;8.97;;
3149;SDS011;32503;47.748;8.960;2022-09-01T00:38:59;12.13;;;9.97;;
3149;SDS011;32503;47.748;8.960;2022-09-01T00:41:28;14.57;;;11.60;;
3149;SDS011;32503;47.748;8.960;2022-09-01T00:43:58;12.27;;;11.07;;
3149;SDS011;32503;47.748;8.960;2022-09-01T00:46:31;10.67;;;9.70;;
3149;SDS011;32503;47.748;8.960;2022-09-01T00:49:03;11.10;;;10.17;;
3149;SDS011;32503;47.748;8.960;2022-09-01T00:51:34;10.07;;;9.17;;
3149;SDS011;32503;47.748;8.960;2022-09-01T00:54:05;10.83;;;9.93;;
3149;SDS011;32503;47.748;8.960;2022-09-01T00:56:36;9.73;;;8.90;;
3149;SDS011;32503;47.748;8.960;2022-09-01T00:59:06;12.63;;;11.37;;
3149;SDS011;32503;47.748;8.960;2022-09-01T01:01:37;11.60;;;10.50;;
3149;SDS011;32503;47.748;8.960;2022-09-01T01:04:05;11.63;;;10.53;;
3149;SDS011;32503;47.748;8.960;2022-09-01T01:06:39;12.03;;;10.93;;
3149;SDS011;32503;47.748;8.960;2022-09-01T01:09:13;13.17;;;11.97;;
3149;SDS011;32503;47.748;8.960;2022-09-01T01:11:42;11.50;;;10.40;;
3149;SDS011;32503;47.748;8.960;2022-09-01T01:14:10;10.80;;;9.90;;
3149;SDS011;32503;47.748;8.960;2022-09-01T01:16:41;10.70;;;9.70;;
3149;SDS011;32503;47.748;8.960;2022-09-01T01:19:12;11.20;;;9.90;;
3149;SDS011;32503;47.748;8.960;2022-09-01T01:22:03;10.17;;;9.17;;
3149;SDS011;32503;47.748;8.960;2022-09-01T01:24:54;10.67;;;9.80;;
3149;SDS011;32503;47.748;8.960;2022-09-01T01:27:22;11.30;;;10.30;;
3149;SDS011;32503;47.748;8.960;2022-09-01T01:29:49;10.10;;;9.20;;
3149;SDS011;32503;47.748;8.960;2022-09-01T01:32:17;12.70;;;11.50;;
3149;SDS011;32503;47.748;8.960;2022-09-01T01:34:45;10.47;;;9.47;;
3149;SDS011;32503;47.748;8.960;2022-09-01T01:37:12;11.73;;;10.33;;
3149;SDS011;32503;47.748;8.960;2022-09-01T01:39:39;11.70;;;10.60;;
3149;SDS011;32503;47.748;8.960;2022-09-01T01:42:10;11.60;;;10.60;;
3149;SDS011;32503;47.748;8.960;2022-09-01T01:44:37;9.77;;;9.03;;
3149;SDS011;32503;47.748;8.960;2022-09-01T01:47:05;12.37;;;11.10;;
3149;SDS011;32503;47.748;8.960;2022-09-01T01:49:37;12.33;;;11.13;;
3149;SDS011;32503;47.748;8.960;2022-09-01T01:52:07;15.20;;;13.43;;
3149;SDS011;32503;47.748;8.960;2022-09-01T01:54:38;13.23;;;11.93;;
3149;SDS011;32503;47.748;8.960;2022-09-01T01:57:06;15.53;;;13.93;;
3149;SDS011;32503;47.748;8.960;2022-09-01T01:59:35;14.27;;;12.27;;
3149;SDS011;32503;47.748;8.960;2022-09-01T02:02:05;19.17;;;13.77;;
3149;SDS011;32503;47.748;8.960;2022-09-01T02:04:34;14.87;;;12.90;;
3149;SDS011;32503;47.748;8.960;2022-09-01T02:07:01;16.87;;;15.17;;
3149;SDS011;32503;47.748;8.960;2022-09-01T02:09:28;13.30;;;11.90;;
3149;SDS011;32503;47.748;8.960;2022-09-01T02:11:55;14.50;;;12.07;;
3149;SDS011;32503;47.748;8.960;2022-09-01T02:14:23;15.00;;;13.50;;
3149;SDS011;32503;47.748;8.960;2022-09-01T02:16:52;14.50;;;12.97;;
3149;SDS011;32503;47.748;8.960;2022-09-01T02:19:20;13.00;;;11.80;;
3149;SDS011;32503;47.748;8.960;2022-09-01T02:21:47;12.60;;;11.50;;
3149;SDS011;32503;47.748;8.960;2022-09-01T02:24:18;14.73;;;12.80;;
3149;SDS011;32503;47.748;8.960;2022-09-01T02:26:46;12.20;;;11.10;;
3149;SDS011;32503;47.748;8.960;2022-09-01T02:29:14;13.10;;;11.83;;
3149;SDS011;32503;47.748;8.960;2022-09-01T02:31:46;12.33;;;11.03;;
3149;SDS011;32503;47.748;8.960;2022-09-01T02:34:18;13.40;;;12.07;;
3149;SDS011;32503;47.748;8.960;2022-09-01T02:36:48;14.43;;;11.93;;
3149;SDS011;32503;47.748;8.960;2022-09-01T02:39:18;11.70;;;10.60;;
3149;SDS011;32503;47.748;8.960;2022-09-01T02:41:48;11.83;;;10.77;;
3149;SDS011;32503;47.748;8.960;2022-09-01T02:44:16;12.70;;;11.50;;
3149;SDS011;32503;47.748;8.960;2022-09-01T02:46:44;11.97;;;10.77;;
3149;SDS011;32503;47.748;8.960;2022-09-01T02:49:14;10.03;;;9.30;;
3149;SDS011;32503;47.748;8.960;2022-09-01T02:51:50;13.40;;;12.00;;
3149;SDS011;32503;47.748;8.960;2022-09-01T02:54:24;13.13;;;11.93;;
3149;SDS011;32503;47.748;8.960;2022-09-01T02:56:53;12.83;;;11.63;;
3149;SDS011;32503;47.748;8.960;2022-09-01T02:59:21;12.43;;;11.33;;
3149;SDS011;32503;47.748;8.960;2022-09-01T03:01:52;12.03;;;11.00;;
3149;SDS011;32503;47.748;8.960;2022-09-01T03:04:22;12.57;;;11.33;;
3149;SDS011;32503;47.748;8.960;2022-09-01T03:06:52;13.80;;;11.17;;
3149;SDS011;32503;47.748;8.960;2022-09-01T03:09:22;12.23;;;11.17;;
3149;SDS011;32503;47.748;8.960;2022-09-01T03:11:50;12.70;;;11.40;;
3149;SDS011;32503;47.748;8.960;2022-09-01T03:14:18;12.43;;;11.23;;
3149;SDS011;32503;47.748;8.960;2022-09-01T03:16:47;10.97;;;10.00;;
3149;SDS011;32503;47.748;8.960;2022-09-01T03:19:14;13.33;;;12.13;;
3149;SDS011;32503;47.748;8.960;2022-09-01T03:21:43;14.07;;;12.77;;
3149;SDS011;32503;47.748;8.960;2022-09-01T03:24:13;13.00;;;11.63;;
3149;SDS011;32503;47.748;8.960;2022-09-01T03:26:43;13.97;;;12.30;;
3149;SDS011;32503;47.748;8.960;2022-09-01T03:29:13;12.83;;;11.63;;
3149;SDS011;32503;47.748;8.960;2022-09-01T03:31:41;12.67;;;11.50;;
3149;SDS011;32503;47.748;8.960;2022-09-01T03:36:36;12.70;;;11.50;;
3149;SDS011;32503;47.748;8.960;2022-09-01T03:39:04;12.07;;;10.97;;
3149;SDS011;32503;47.748;8.960;2022-09-01T03:41:32;14.30;;;12.80;;
3149;SDS011;32503;47.748;8.960;2022-09-01T03:44:02;14.73;;;13.10;;
3149;SDS011;32503;47.748;8.960;2022-09-01T03:46:29;13.70;;;12.40;;
3149;SDS011;32503;47.748;8.960;2022-09-01T03:48:58;13.73;;;12.33;;
3149;SDS011;32503;47.748;8.960;2022-09-01T03:51:26;10.93;;;9.90;;
3149;SDS011;32503;47.748;8.960;2022-09-01T03:53:55;12.43;;;11.13;;
3149;SDS011;32503;47.748;8.960;2022-09-01T03:56:24;9.90;;;9.10;;
3149;SDS011;32503;47.748;8.960;2022-09-01T03:58:57;12.00;;;10.33;;
3149;SDS011;32503;47.748;8.960;2022-09-01T04:01:26;11.13;;;10.03;;
3149;SDS011;32503;47.748;8.960;2022-09-01T04:03:57;11.87;;;10.77;;
3149;SDS011;32503;47.748;8.960;2022-09-01T04:06:25;13.35;;;12.05;;
3149;SDS011;32503;47.748;8.960;2022-09-01T04:08:54;12.43;;;11.33;;
3149;SDS011;32503;47.748;8.960;2022-09-01T04:11:27;15.93;;;12.13;;
3149;SDS011;32503;47.748;8.960;2022-09-01T04:13:56;13.17;;;11.87;;
3149;SDS011;32503;47.748;8.960;2022-09-01T04:16:24;13.53;;;11.90;;
3149;SDS011;32503;47.748;8.960;2022-09-01T04:19:11;12.37;;;11.10;;
3149;SDS011;32503;47.748;8.960;2022-09-01T04:21:44;13.17;;;9.77;;
3149;SDS011;32503;47.748;8.960;2022-09-01T04:24:14;11.57;;;9.73;;
3149;SDS011;32503;47.748;8.960;2022-09-01T04:26:43;10.23;;;9.33;;
3149;SDS011;32503;47.748;8.960;2022-09-01T04:29:14;9.80;;;9.00;;
3149;SDS011;32503;47.748;8.960;2022-09-01T04:31:43;10.80;;;9.70;;
3149;SDS011;32503;47.748;8.960;2022-09-01T04:34:17;10.53;;;9.63;;
3149;SDS011;32503;47.748;8.960;2022-09-01T04:36:44;10.80;;;9.53;;
3149;SDS011;32503;47.748;8.960;2022-09-01T04:39:12;10.20;;;9.30;;
3149;SDS011;32503;47.748;8.960;2022-09-01T04:41:40;9.87;;;9.07;;
3149;SDS011;32503;47.748;8.960;2022-09-01T04:44:11;11.00;;;10.10;;
3149;SDS011;32503;47.748;8.960;2022-09-01T04:46:43;8.87;;;8.17;;
3149;SDS011;32503;47.748;8.960;2022-09-01T04:49:15;8.87;;;8.00;;
3149;SDS011;32503;47.748;8.960;2022-09-01T04:51:47;8.63;;;7.93;;
3149;SDS011;32503;47.748;8.960;2022-09-01T04:54:17;11.70;;;10.70;;
3149;SDS011;32503;47.748;8.960;2022-09-01T04:56:46;11.40;;;10.30;;
3149;SDS011;32503;47.748;8.960;2022-09-01T04:59:17;10.67;;;9.67;;
3149;SDS011;32503;47.748;8.960;2022-09-01T05:01:47;11.13;;;10.17;;
3149;SDS011;32503;47.748;8.960;2022-09-01T05:04:15;10.57;;;9.60;;
3149;SDS011;32503;47.748;8.960;2022-09-01T05:06:47;11.27;;;10.20;;
3149;SDS011;32503;47.748;8.960;2022-09-01T05:09:17;10.10;;;9.20;;
3149;SDS011;32503;47.748;8.960;2022-09-01T05:11:45;10.97;;;9.97;;
3149;SDS011;32503;47.748;8.960;2022-09-01T05:14:14;9.50;;;8.70;;
3149;SDS011;32503;47.748;8.960;2022-09-01T05:16:43;9.80;;;8.90;;
3149;SDS011;32503;47.748;8.960;2022-09-01T05:19:10;10.20;;;9.33;;
3149;SDS011;32503;47.748;8.960;2022-09-01T05:21:40;9.13;;;8.33;;
3149;SDS011;32503;47.748;8.960;2022-09-01T05:24:10;9.60;;;8.80;;
3149;SDS011;32503;47.748;8.960;2022-09-01T05:26:40;9.87;;;9.07;;
3149;SDS011;32503;47.748;8.960;2022-09-01T05:29:11;9.27;;;8.47;;
3149;SDS011;32503;47.748;8.960;2022-09-01T05:31:42;9.40;;;8.67;;
3149;SDS011;32503;47.748;8.960;2022-09-01T05:34:13;8.87;;;8.17;;
3149;SDS011;32503;47.748;8.960;2022-09-01T05:36:44;8.60;;;8.00;;
3149;SDS011;32503;47.748;8.960;2022-09-01T05:39:14;8.60;;;7.90;;
3149;SDS011;32503;47.748;8.960;2022-09-01T05:41:42;7.70;;;7.10;;
3149;SDS011;32503;47.748;8.960;2022-09-01T05:44:10;7.87;;;7.33;;
3149;SDS011;32503;47.748;8.960;2022-09-01T05:46:38;9.00;;;8.23;;
3149;SDS011;32503;47.748;8.960;2022-09-01T05:49:08;8.27;;;7.67;;
3149;SDS011;32503;47.748;8.960;2022-09-01T05:51:38;9.80;;;8.80;;
3149;SDS011;32503;47.748;8.960;2022-09-01T05:54:08;7.83;;;7.27;;
3149;SDS011;32503;47.748;8.960;2022-09-01T05:56:36;7.87;;;7.30;;
3149;SDS011;32503;47.748;8.960;2022-09-01T05:59:05;8.40;;;7.50;;
3149;SDS011;32503;47.748;8.960;2022-09-01T06:01:34;8.20;;;7.40;;
3149;SDS011;32503;47.748;8.960;2022-09-01T06:04:07;9.67;;;7.23;;
3149;SDS011;32503;47.748;8.960;2022-09-01T06:06:38;7.40;;;6.80;;
3149;SDS011;32503;47.748;8.960;2022-09-01T06:09:11;6.43;;;6.03;;
3149;SDS011;32503;47.748;8.960;2022-09-01T06:11:42;6.83;;;6.33;;
3149;SDS011;32503;47.748;8.960;2022-09-01T06:14:11;7.53;;;7.13;;
3149;SDS011;32503;47.748;8.960;2022-09-01T06:16:39;6.40;;;6.10;;
3149;SDS011;32503;47.748;8.960;2022-09-01T06:19:08;6.70;;;6.30;;
3149;SDS011;32503;47.748;8.960;2022-09-01T06:21:37;6.97;;;6.57;;
3149;SDS011;32503;47.748;8.960;2022-09-01T06:24:04;7.20;;;6.70;;
3149;SDS011;32503;47.748;8.960;2022-09-01T06:26:33;7.03;;;6.50;;
3149;SDS011;32503;47.748;8.960;2022-09-01T06:29:04;6.70;;;6.20;;
3149;SDS011;32503;47.748;8.960;2022-09-01T06:31:34;6.37;;;5.97;;
3149;SDS011;32503;47.748;8.960;2022-09-01T06:34:04;7.20;;;6.70;;
3149;SDS011;32503;47.748;8.960;2022-09-01T06:36:35;6.50;;;6.10;;
3149;SDS011;32503;47.748;8.960;2022-09-01T06:39:05;7.43;;;6.90;;
3149;SDS011;32503;47.748;8.960;2022-09-01T06:41:33;7.67;;;7.10;;
3149;SDS011;32503;47.748;8.960;2022-09-01T06:44:02;6.77;;;6.27;;
3149;SDS011;32503;47.748;8.960;2022-09-01T06:46:29;6.93;;;6.53;;
3149;SDS011;32503;47.748;8.960;2022-09-01T06:48:58;7.47;;;6.97;;
3149;SDS011;32503;47.748;8.960;2022-09-01T06:51:25;7.03;;;6.53;;
3149;SDS011;32503;47.748;8.960;2022-09-01T06:53:55;6.50;;;6.10;;
3149;SDS011;32503;47.748;8.960;2022-09-01T06:56:23;6.60;;;6.10;;
3149;SDS011;32503;47.748;8.960;2022-09-01T06:58:54;6.63;;;6.20;;
3149;SDS011;32503;47.748;8.960;2022-09-01T07:01:21;6.00;;;5.70;;
3149;SDS011;32503;47.748;8.960;2022-09-01T07:03:51;6.70;;;6.20;;
3149;SDS011;32503;47.748;8.960;2022-09-01T07:06:21;6.50;;;6.10;;
3149;SDS011;32503;47.748;8.960;2022-09-01T07:08:51;6.10;;;5.80;;
3149;SDS011;32503;47.748;8.960;2022-09-01T07:11:23;5.57;;;5.30;;
3149;SDS011;32503;47.748;8.960;2022-09-01T07:13:53;5.87;;;5.57;;
3149;SDS011;32503;47.748;8.960;2022-09-01T07:16:23;6.03;;;5.73;;
3149;SDS011;32503;47.748;8.960;2022-09-01T07:18:54;6.00;;;5.70;;
3149;SDS011;32503;47.748;8.960;2022-09-01T07:21:42;7.00;;;6.50;;
3149;SDS011;32503;47.748;8.960;2022-09-01T07:24:12;6.23;;;5.80;;
3149;SDS011;32503;47.748;8.960;2022-09-01T07:26:43;6.70;;;6.20;;
3149;SDS011;32503;47.748;8.960;2022-09-01T07:29:15;5.03;;;4.83;;
3149;SDS011;32503;47.748;8.960;2022-09-01T07:31:46;6.67;;;6.20;;
3149;SDS011;32503;47.748;8.960;2022-09-01T07:34:14;6.37;;;6.07;;
3149;SDS011;32503;47.748;8.960;2022-09-01T07:36:42;6.20;;;5.90;;
3149;SDS011;32503;47.748;8.960;2022-09-01T07:39:10;6.00;;;5.70;;
3149;SDS011;32503;47.748;8.960;2022-09-01T07:41:40;6.13;;;5.80;;
3149;SDS011;32503;47.748;8.960;2022-09-01T07:44:09;4.80;;;4.60;;
3149;SDS011;32503;47.748;8.960;2022-09-01T07:46:39;5.53;;;5.23;;
3149;SDS011;32503;47.748;8.960;2022-09-01T07:49:07;5.20;;;5.00;;
3149;SDS011;32503;47.748;8.960;2022-09-01T07:51:35;5.70;;;5.40;;
3149;SDS011;32503;47.748;8.960;2022-09-01T07:54:02;5.13;;;4.83;;
3149;SDS011;32503;47.748;8.960;2022-09-01T07:56:30;5.43;;;5.23;;
3149;SDS011;32503;47.748;8.960;2022-09-01T07:58:57;5.07;;;4.77;;
3149;SDS011;32503;47.748;8.960;2022-09-01T08:01:27;5.60;;;5.27;;
3149;SDS011;32503;47.748;8.960;2022-09-01T08:03:55;5.40;;;5.20;;
3149;SDS011;32503;47.748;8.960;2022-09-01T08:06:26;5.20;;;4.80;;
3149;SDS011;32503;47.748;8.960;2022-09-01T08:08:55;5.27;;;4.97;;
3149;SDS011;32503;47.748;8.960;2022-09-01T08:11:25;6.03;;;5.63;;
3149;SDS011;32503;47.748;8.960;2022-09-01T08:13:55;4.93;;;4.63;;
3149;SDS011;32503;47.748;8.960;2022-09-01T08:16:24;5.20;;;5.00;;
3149;SDS011;32503;47.748;8.960;2022-09-01T08:18:53;5.20;;;4.80;;
3149;SDS011;32503;47.748;8.960;2022-09-01T08:21:22;5.20;;;4.80;;
3149;SDS011;32503;47.748;8.960;2022-09-01T08:23:50;4.20;;;4.00;;
3149;SDS011;32503;47.748;8.960;2022-09-01T08:26:20;5.60;;;5.20;;
3149;SDS011;32503;47.748;8.960;2022-09-01T08:28:51;4.80;;;4.50;;
3149;SDS011;32503;47.748;8.960;2022-09-01T08:31:19;4.50;;;4.30;;
3149;SDS011;32503;47.748;8.960;2022-09-01T08:33:48;5.03;;;4.83;;
3149;SDS011;32503;47.748;8.960;2022-09-01T08:36:17;4.10;;;3.90;;
3149;SDS011;32503;47.748;8.960;2022-09-01T08:38:45;5.03;;;4.83;;
3149;SDS011;32503;47.748;8.960;2022-09-01T08:41:14;4.87;;;4.67;;
3149;SDS011;32503;47.748;8.960;2022-09-01T08:43:55;4.97;;;4.67;;
3149;SDS011;32503;47.748;8.960;2022-09-01T08:46:33;4.17;;;3.97;;
3149;SDS011;32503;47.748;8.960;2022-09-01T08:49:05;4.40;;;4.20;;
3149;SDS011;32503;47.748;8.960;2022-09-01T08:51:40;4.10;;;3.90;;
3149;SDS011;32503;47.748;8.960;2022-09-01T08:54:16;3.90;;;3.70;;
3149;SDS011;32503;47.748;8.960;2022-09-01T08:56:51;4.90;;;4.60;;
3149;SDS011;32503;47.748;8.960;2022-09-01T08:59:22;4.37;;;4.17;;
3149;SDS011;32503;47.748;8.960;2022-09-01T09:01:51;3.97;;;3.83;;
3149;SDS011;32503;47.748;8.960;2022-09-01T09:04:34;4.00;;;3.70;;
3149;SDS011;32503;47.748;8.960;2022-09-01T09:07:22;3.60;;;3.50;;
3149;SDS011;32503;47.748;8.960;2022-09-01T09:10:07;4.23;;;4.13;;
3149;SDS011;32503;47.748;8.960;2022-09-01T09:12:48;4.47;;;4.27;;
3149;SDS011;32503;47.748;8.960;2022-09-01T09:15:32;4.00;;;3.90;;
3149;SDS011;32503;47.748;8.960;2022-09-01T09:18:11;4.27;;;4.07;;
3149;SDS011;32503;47.748;8.960;2022-09-01T09:20:45;3.90;;;3.73;;
3149;SDS011;32503;47.748;8.960;2022-09-01T09:23:24;3.70;;;3.60;;
3149;SDS011;32503;47.748;8.960;2022-09-01T09:25:58;4.20;;;4.00;;
3149;SDS011;32503;47.748;8.960;2022-09-01T09:28:25;3.57;;;3.47;;
3149;SDS011;32503;47.748;8.960;2022-09-01T09:33:58;3.50;;;3.40;;
3149;SDS011;32503;47.748;8.960;2022-09-01T09:36:30;4.00;;;3.80;;
3149;SDS011;32503;47.748;8.960;2022-09-01T09:39:06;3.70;;;3.60;;
3149;SDS011;32503;47.748;8.960;2022-09-01T09:41:37;3.10;;;3.00;;
3149;SDS011;32503;47.748;8.960;2022-09-01T09:44:14;3.50;;;3.40;;
3149;SDS011;32503;47.748;8.960;2022-09-01T09:46:47;3.77;;;3.57;;
3149;SDS011;32503;47.748;8.960;2022-09-01T09:49:16;3.77;;;3.57;;
3149;SDS011;32503;47.748;8.960;2022-09-01T09:51:48;3.30;;;3.20;;
3149;SDS011;32503;47.748;8.960;2022-09-01T09:54:21;7.03;;;3.70;;
3149;SDS011;32503;47.748;8.960;2022-09-01T09:57:01;3.30;;;3.20;;
3149;SDS011;32503;47.748;8.960;2022-09-01T09:59:37;3.97;;;3.77;;
3149;SDS011;32503;47.748;8.960;2022-09-01T10:02:23;3.50;;;3.40;;
3149;SDS011;32503;47.748;8.960;2022-09-01T10:04:56;3.13;;;3.03;;
3149;SDS011;32503;47.748;8.960;2022-09-01T10:07:25;3.43;;;3.33;;
3149;SDS011;32503;47.748;8.960;2022-09-01T10:10:00;3.50;;;3.30;;
3149;SDS011;32503;47.748;8.960;2022-09-01T10:12:31;3.77;;;3.57;;
3149;SDS011;32503;47.748;8.960;2022-09-01T10:15:00;3.70;;;3.60;;
3149;SDS011;32503;47.748;8.960;2022-09-01T10:17:31;3.93;;;3.83;;
3149;SDS011;32503;47.748;8.960;2022-09-01T10:20:05;4.30;;;4.10;;
3149;SDS011;32503;47.748;8.960;2022-09-01T10:22:37;3.57;;;3.47;;
3149;SDS011;32503;47.748;8.960;2022-09-01T10:25:08;3.90;;;3.70;;
3149;SDS011;32503;47.748;8.960;2022-09-01T10:27:44;3.80;;;3.70;;
3149;SDS011;32503;47.748;8.960;2022-09-01T10:30:15;3.73;;;3.53;;
3149;SDS011;32503;47.748;8.960;2022-09-01T10:32:45;3.63;;;3.50;;
3149;SDS011;32503;47.748;8.960;2022-09-01T10:35:17;3.40;;;3.30;;
3149;SDS011;32503;47.748;8.960;2022-09-01T10:37:48;3.20;;;3.10;;
3149;SDS011;32503;47.748;8.960;2022-09-01T10:40:27;3.67;;;3.50;;
3149;SDS011;32503;47.748;8.960;2022-09-01T10:55:37;3.77;;;3.60;;
3149;SDS011;32503;47.748;8.960;2022-09-01T10:58:32;3.63;;;3.50;;
3149;SDS011;32503;47.748;8.960;2022-09-01T11:07:43;4.10;;;3.90;;
3149;SDS011;32503;47.748;8.960;2022-09-01T11:10:15;4.33;;;4.13;;
3149;SDS011;32503;47.748;8.960;2022-09-01T11:13:17;6.83;;;3.40;;
3149;SDS011;32503;47.748;8.960;2022-09-01T11:22:19;3.60;;;3.40;;
3149;SDS011;32503;47.748;8.960;2022-09-01T11:28:05;3.50;;;3.40;;
3149;SDS011;32503;47.748;8.960;2022-09-01T11:30:53;3.87;;;3.77;;
3149;SDS011;32503;47.748;8.960;2022-09-01T11:33:37;3.90;;;3.80;;
3149;SDS011;32503;47.748;8.960;2022-09-01T11:36:14;4.50;;;4.30;;
3149;SDS011;32503;47.748;8.960;2022-09-01T11:38:53;3.20;;;3.10;;
3149;SDS011;32503;47.748;8.960;2022-09-01T11:41:28;3.70;;;3.60;;
3149;SDS011;32503;47.748;8.960;2022-09-01T11:44:01;3.93;;;3.73;;
3149;SDS011;32503;47.748;8.960;2022-09-01T11:46:39;3.30;;;3.20;;
3149;SDS011;32503;47.748;8.960;2022-09-01T11:51:54;3.53;;;3.43;;
3149;SDS011;32503;47.748;8.960;2022-09-01T11:54:24;3.77;;;3.67;;
3149;SDS011;32503;47.748;8.960;2022-09-01T11:56:53;3.53;;;3.43;;
3149;SDS011;32503;47.748;8.960;2022-09-01T11:59:30;4.00;;;3.50;;
3149;SDS011;32503;47.748;8.960;2022-09-01T12:02:00;3.70;;;3.50;;
3149;SDS011;32503;47.748;8.960;2022-09-01T12:04:31;3.37;;;3.27;;
3149;SDS011;32503;47.748;8.960;2022-09-01T12:07:03;3.40;;;3.20;;
3149;SDS011;32503;47.748;8.960;2022-09-01T12:09:33;3.40;;;3.30;;
3149;SDS011;32503;47.748;8.960;2022-09-01T12:12:04;3.63;;;3.33;;
3149;SDS011;32503;47.748;8.960;2022-09-01T12:14:33;3.80;;;3.60;;
3149;SDS011;32503;47.748;8.960;2022-09-01T12:17:02;3.23;;;3.03;;
3149;SDS011;32503;47.748;8.960;2022-09-01T12:19:32;3.70;;;3.60;;
3149;SDS011;32503;47.748;8.960;2022-09-01T12:22:05;3.60;;;3.30;;
3149;SDS011;32503;47.748;8.960;2022-09-01T12:24:43;3.70;;;3.50;;
3149;SDS011;32503;47.748;8.960;2022-09-01T12:27:12;3.83;;;3.73;;
3149;SDS011;32503;47.748;8.960;2022-09-01T12:29:40;3.53;;;3.43;;
3149;SDS011;32503;47.748;8.960;2022-09-01T12:32:09;3.40;;;3.30;;
3149;SDS011;32503;47.748;8.960;2022-09-01T12:34:38;3.30;;;3.20;;
3149;SDS011;32503;47.748;8.960;2022-09-01T12:37:09;3.67;;;3.57;;
3149;SDS011;32503;47.748;8.960;2022-09-01T12:39:46;3.47;;;3.27;;
3149;SDS011;32503;47.748;8.960;2022-09-01T12:42:25;3.93;;;3.77;;
3149;SDS011;32503;47.748;8.960;2022-09-01T12:44:56;3.67;;;3.47;;
3149;SDS011;32503;47.748;8.960;2022-09-01T12:47:46;3.87;;;3.70;;
3149;SDS011;32503;47.748;8.960;2022-09-01T12:50:40;3.87;;;3.67;;
3149;SDS011;32503;47.748;8.960;2022-09-01T12:53:21;4.20;;;4.00;;
3149;SDS011;32503;47.748;8.960;2022-09-01T12:59:02;3.40;;;3.30;;
3149;SDS011;32503;47.748;8.960;2022-09-01T13:01:37;4.23;;;3.93;;
3149;SDS011;32503;47.748;8.960;2022-09-01T13:04:14;4.10;;;3.90;;
3149;SDS011;32503;47.748;8.960;2022-09-01T13:06:52;3.70;;;3.60;;
3149;SDS011;32503;47.748;8.960;2022-09-01T13:09:21;4.13;;;3.93;;
3149;SDS011;32503;47.748;8.960;2022-09-01T13:11:48;3.47;;;3.37;;
3149;SDS011;32503;47.748;8.960;2022-09-01T13:14:16;3.43;;;3.33;;
3149;SDS011;32503;47.748;8.960;2022-09-01T13:16:43;3.20;;;3.10;;
3149;SDS011;32503;47.748;8.960;2022-09-01T13:19:11;3.80;;;3.60;;
3149;SDS011;32503;47.748;8.960;2022-09-01T13:21:39;3.50;;;3.40;;
3149;SDS011;32503;47.748;8.960;2022-09-01T13:24:06;3.30;;;3.20;;
3149;SDS011;32503;47.748;8.960;2022-09-01T13:26:33;4.20;;;4.00;;
3149;SDS011;32503;47.748;8.960;2022-09-01T13:29:01;4.07;;;3.87;;
3149;SDS011;32503;47.748;8.960;2022-09-01T13:31:28;4.07;;;3.87;;
3149;SDS011;32503;47.748;8.960;2022-09-01T13:33:55;3.80;;;3.70;;
3149;SDS011;32503;47.748;8.960;2022-09-01T13:36:23;4.10;;;4.00;;
3149;SDS011;32503;47.748;8.960;2022-09-01T13:38:52;3.80;;;3.70;;
3149;SDS011;32503;47.748;8.960;2022-09-01T13:41:19;4.27;;;4.10;;
3149;SDS011;32503;47.748;8.960;2022-09-01T13:43:46;4.30;;;4.10;;
3149;SDS011;32503;47.748;8.960;2022-09-01T13:46:14;3.73;;;3.53;;
3149;SDS011;32503;47.748;8.960;2022-09-01T13:48:41;3.73;;;3.53;;
3149;SDS011;32503;47.748;8.960;2022-09-01T13:51:09;3.70;;;3.50;;
3149;SDS011;32503;47.748;8.960;2022-09-01T13:53:36;3.87;;;3.77;;
3149;SDS011;32503;47.748;8.960;2022-09-01T13:56:05;4.23;;;4.03;;
3149;SDS011;32503;47.748;8.960;2022-09-01T13:58:32;4.23;;;4.10;;
3149;SDS011;32503;47.748;8.960;2022-09-01T14:00:59;3.80;;;3.60;;
3149;SDS011;32503;47.748;8.960;2022-09-01T14:03:26;3.27;;;3.17;;
3149;SDS011;32503;47.748;8.960;2022-09-01T14:05:56;4.00;;;3.80;;
3149;SDS011;32503;47.748;8.960;2022-09-01T14:08:23;4.40;;;4.20;;
3149;SDS011;32503;47.748;8.960;2022-09-01T14:10:51;4.47;;;4.10;;
3149;SDS011;32503;47.748;8.960;2022-09-01T14:13:21;3.90;;;3.70;;
3149;SDS011;32503;47.748;8.960;2022-09-01T14:15:50;4.00;;;3.80;;
3149;SDS011;32503;47.748;8.960;2022-09-01T14:18:18;4.50;;;4.40;;
3149;SDS011;32503;47.748;8.960;2022-09-01T14:20:47;4.00;;;3.90;;
3149;SDS011;32503;47.748;8.960;2022-09-01T14:23:17;3.97;;;3.87;;
3149;SDS011;32503;47.748;8.960;2022-09-01T14:25:46;4.70;;;4.50;;
3149;SDS011;32503;47.748;8.960;2022-09-01T14:28:15;4.40;;;4.20;;
3149;SDS011;32503;47.748;8.960;2022-09-01T14:30:45;3.50;;;3.40;;
3149;SDS011;32503;47.748;8.960;2022-09-01T14:33:12;3.80;;;3.70;;
3149;SDS011;32503;47.748;8.960;2022-09-01T14:35:40;4.00;;;3.90;;
3149;SDS011;32503;47.748;8.960;2022-09-01T14:38:10;3.50;;;3.40;;
3149;SDS011;32503;47.748;8.960;2022-09-01T14:40:38;4.03;;;3.93;;
3149;SDS011;32503;47.748;8.960;2022-09-01T14:43:07;4.60;;;4.40;;
3149;SDS011;32503;47.748;8.960;2022-09-01T14:45:38;4.97;;;4.77;;
3149;SDS011;32503;47.748;8.960;2022-09-01T14:48:10;4.53;;;4.30;;
3149;SDS011;32503;47.748;8.960;2022-09-01T14:50:39;3.77;;;3.67;;
3149;SDS011;32503;47.748;8.960;2022-09-01T14:53:08;4.03;;;3.93;;
3149;SDS011;32503;47.748;8.960;2022-09-01T14:55:36;3.87;;;3.67;;
3149;SDS011;32503;47.748;8.960;2022-09-01T14:58:03;4.43;;;4.20;;
3149;SDS011;32503;47.748;8.960;2022-09-01T15:00:31;4.13;;;4.03;;
3149;SDS011;32503;47.748;8.960;2022-09-01T15:02:59;5.43;;;5.13;;
3149;SDS011;32503;47.748;8.960;2022-09-01T15:05:28;4.10;;;4.00;;
3149;SDS011;32503;47.748;8.960;2022-09-01T15:07:55;4.23;;;4.03;;
3149;SDS011;32503;47.748;8.960;2022-09-01T15:10:23;4.40;;;4.20;;
3149;SDS011;32503;47.748;8.960;2022-09-01T15:12:52;4.00;;;3.90;;
3149;SDS011;32503;47.748;8.960;2022-09-01T15:15:21;3.47;;;3.37;;
3149;SDS011;32503;47.748;8.960;2022-09-01T15:17:49;4.10;;;3.80;;
3149;SDS011;32503;47.748;8.960;2022-09-01T15:20:17;4.90;;;4.70;;
3149;SDS011;32503;47.748;8.960;2022-09-01T15:23:03;4.80;;;4.60;;
3149;SDS011;32503;47.748;8.960;2022-09-01T15:25:31;4.87;;;4.67;;
3149;SDS011;32503;47.748;8.960;2022-09-01T15:27:58;5.47;;;5.07;;
3149;SDS011;32503;47.748;8.960;2022-09-01T15:30:26;4.57;;;4.37;;
3149;SDS011;32503;47.748;8.960;2022-09-01T15:32:53;5.30;;;5.10;;
3149;SDS011;32503;47.748;8.960;2022-09-01T15:35:20;4.77;;;4.57;;
3149;SDS011;32503;47.748;8.960;2022-09-01T15:37:49;4.33;;;4.23;;
3149;SDS011;32503;47.748;8.960;2022-09-01T15:40:18;4.90;;;4.70;;
3149;SDS011;32503;47.748;8.960;2022-09-01T15:42:45;5.00;;;4.80;;
3149;SDS011;32503;47.748;8.960;2022-09-01T15:45:13;4.80;;;4.60;;
3149;SDS011;32503;47.748;8.960;2022-09-01T15:47:44;4.43;;;4.23;;
3149;SDS011;32503;47.748;8.960;2022-09-01T15:50:12;5.30;;;4.93;;
3149;SDS011;32503;47.748;8.960;2022-09-01T15:52:45;4.50;;;4.20;;
3149;SDS011;32503;47.748;8.960;2022-09-01T15:55:16;5.60;;;5.40;;
3149;SDS011;32503;47.748;8.960;2022-09-01T15:57:46;4.90;;;4.70;;